sensor_id;sensor_type;location;lat;lon;timestamp;P1;durP1;ratioP1;P2;durP2;ratioP2
52918;SDS011;38793;52.690;6.812;2023-05-07T00:01:05;13.88;;;11.57;;
52918;SDS011;38793;52.690;6.812;2023-05-07T00:03:31;14.40;;;10.57;;
52918;SDS011;38793;52.690;6.812;2023-05-07T00:05:57;18.13;;;10.63;;
52918;SDS011;38793;52.690;6.812;2023-05-07T00:08:23;12.73;;;11.43;;
52918;SDS011;38793;52.690;6.812;2023-05-07T00:10:49;12.27;;;11.00;;
52918;SDS011;38793;52.690;6.812;2023-05-07T00:13:14;13.13;;;9.48;;
52918;SDS011;38793;52.690;6.812;2023-05-07T00:15:40;13.35;;;10.77;;
52918;SDS011;38793;52.690;6.812;2023-05-07T00:18:06;12.77;;;10.60;;
52918;SDS011;38793;52.690;6.812;2023-05-07T00:20:31;11.55;;;10.00;;
52918;SDS011;38793;52.690;6.812;2023-05-07T00:22:57;14.02;;;11.13;;
52918;SDS011;38793;52.690;6.812;2023-05-07T00:25:23;15.98;;;12.40;;
52918;SDS011;38793;52.690;6.812;2023-05-07T00:27:48;13.93;;;11.15;;
52918;SDS011;38793;52.690;6.812;2023-05-07T00:30:14;22.63;;;14.15;;
52918;SDS011;38793;52.690;6.812;2023-05-07T00:32:40;13.32;;;11.25;;
52918;SDS011;38793;52.690;6.812;2023-05-07T00:35:05;17.52;;;12.65;;
52918;SDS011;38793;52.690;6.812;2023-05-07T00:37:32;17.25;;;14.30;;
52918;SDS011;38793;52.690;6.812;2023-05-07T00:39:57;17.80;;;14.57;;
52918;SDS011;38793;52.690;6.812;2023-05-07T00:42:23;18.33;;;14.90;;
52918;SDS011;38793;52.690;6.812;2023-05-07T00:44:49;19.90;;;17.27;;
52918;SDS011;38793;52.690;6.812;2023-05-07T00:47:15;22.15;;;15.68;;
52918;SDS011;38793;52.690;6.812;2023-05-07T00:49:42;21.98;;;17.05;;
52918;SDS011;38793;52.690;6.812;2023-05-07T00:52:13;22.02;;;17.15;;
52918;SDS011;38793;52.690;6.812;2023-05-07T00:54:41;21.75;;;17.35;;
52918;SDS011;38793;52.690;6.812;2023-05-07T00:59:33;21.48;;;17.52;;
52918;SDS011;38793;52.690;6.812;2023-05-07T01:01:59;20.52;;;17.73;;
52918;SDS011;38793;52.690;6.812;2023-05-07T01:04:25;21.85;;;18.33;;
52918;SDS011;38793;52.690;6.812;2023-05-07T01:11:46;19.08;;;17.08;;
52918;SDS011;38793;52.690;6.812;2023-05-07T01:14:12;25.98;;;19.50;;
52918;SDS011;38793;52.690;6.812;2023-05-07T01:16:38;21.10;;;17.50;;
52918;SDS011;38793;52.690;6.812;2023-05-07T01:19:05;23.75;;;18.17;;
52918;SDS011;38793;52.690;6.812;2023-05-07T01:21:33;20.85;;;17.67;;
52918;SDS011;38793;52.690;6.812;2023-05-07T01:23:59;23.10;;;18.52;;
52918;SDS011;38793;52.690;6.812;2023-05-07T01:26:26;20.38;;;18.25;;
52918;SDS011;38793;52.690;6.812;2023-05-07T01:28:51;21.20;;;18.80;;
52918;SDS011;38793;52.690;6.812;2023-05-07T01:31:17;25.00;;;19.67;;
52918;SDS011;38793;52.690;6.812;2023-05-07T01:33:43;21.27;;;19.05;;
52918;SDS011;38793;52.690;6.812;2023-05-07T01:36:10;25.15;;;20.05;;
52918;SDS011;38793;52.690;6.812;2023-05-07T01:38:38;25.05;;;21.35;;
52918;SDS011;38793;52.690;6.812;2023-05-07T01:41:06;24.77;;;20.20;;
52918;SDS011;38793;52.690;6.812;2023-05-07T01:43:32;25.92;;;20.15;;
52918;SDS011;38793;52.690;6.812;2023-05-07T01:45:58;25.98;;;20.45;;
52918;SDS011;38793;52.690;6.812;2023-05-07T01:48:26;22.52;;;19.80;;
52918;SDS011;38793;52.690;6.812;2023-05-07T01:50:52;25.58;;;20.08;;
52918;SDS011;38793;52.690;6.812;2023-05-07T01:53:18;22.73;;;20.02;;
52918;SDS011;38793;52.690;6.812;2023-05-07T01:55:43;24.92;;;21.08;;
52918;SDS011;38793;52.690;6.812;2023-05-07T02:00:35;27.75;;;22.48;;
52918;SDS011;38793;52.690;6.812;2023-05-07T02:03:01;29.60;;;22.50;;
52918;SDS011;38793;52.690;6.812;2023-05-07T02:05:27;27.00;;;22.13;;
52918;SDS011;38793;52.690;6.812;2023-05-07T02:07:52;29.02;;;22.85;;
52918;SDS011;38793;52.690;6.812;2023-05-07T02:10:18;26.67;;;21.83;;
52918;SDS011;38793;52.690;6.812;2023-05-07T02:12:43;29.42;;;24.13;;
52918;SDS011;38793;52.690;6.812;2023-05-07T02:15:09;31.25;;;24.50;;
52918;SDS011;38793;52.690;6.812;2023-05-07T02:17:35;26.65;;;22.42;;
52918;SDS011;38793;52.690;6.812;2023-05-07T02:20:03;31.25;;;25.02;;
52918;SDS011;38793;52.690;6.812;2023-05-07T02:22:29;33.35;;;24.55;;
52918;SDS011;38793;52.690;6.812;2023-05-07T02:24:55;31.42;;;24.50;;
52918;SDS011;38793;52.690;6.812;2023-05-07T02:27:20;32.20;;;23.92;;
52918;SDS011;38793;52.690;6.812;2023-05-07T02:29:46;33.95;;;25.67;;
52918;SDS011;38793;52.690;6.812;2023-05-07T02:32:12;36.55;;;26.15;;
52918;SDS011;38793;52.690;6.812;2023-05-07T02:34:37;35.60;;;26.38;;
52918;SDS011;38793;52.690;6.812;2023-05-07T02:37:03;36.17;;;26.17;;
52918;SDS011;38793;52.690;6.812;2023-05-07T02:39:28;34.00;;;26.25;;
52918;SDS011;38793;52.690;6.812;2023-05-07T02:41:54;35.35;;;27.25;;
52918;SDS011;38793;52.690;6.812;2023-05-07T02:44:20;36.25;;;28.63;;
52918;SDS011;38793;52.690;6.812;2023-05-07T02:46:45;43.03;;;29.10;;
52918;SDS011;38793;52.690;6.812;2023-05-07T02:49:11;40.70;;;30.25;;
52918;SDS011;38793;52.690;6.812;2023-05-07T02:51:36;36.55;;;28.45;;
52918;SDS011;38793;52.690;6.812;2023-05-07T02:54:02;39.90;;;30.08;;
52918;SDS011;38793;52.690;6.812;2023-05-07T02:56:27;40.40;;;30.27;;
52918;SDS011;38793;52.690;6.812;2023-05-07T02:58:53;42.72;;;32.28;;
52918;SDS011;38793;52.690;6.812;2023-05-07T03:01:19;40.83;;;30.95;;
52918;SDS011;38793;52.690;6.812;2023-05-07T03:03:45;41.38;;;31.42;;
52918;SDS011;38793;52.690;6.812;2023-05-07T03:06:11;43.73;;;31.00;;
52918;SDS011;38793;52.690;6.812;2023-05-07T03:08:36;39.23;;;31.67;;
52918;SDS011;38793;52.690;6.812;2023-05-07T03:11:02;46.20;;;33.93;;
52918;SDS011;38793;52.690;6.812;2023-05-07T03:13:28;43.53;;;32.75;;
52918;SDS011;38793;52.690;6.812;2023-05-07T03:15:53;46.75;;;35.50;;
52918;SDS011;38793;52.690;6.812;2023-05-07T03:18:19;49.85;;;34.65;;
52918;SDS011;38793;52.690;6.812;2023-05-07T03:20:44;43.05;;;34.22;;
52918;SDS011;38793;52.690;6.812;2023-05-07T03:23:10;41.15;;;33.47;;
52918;SDS011;38793;52.690;6.812;2023-05-07T03:25:36;45.60;;;34.20;;
52918;SDS011;38793;52.690;6.812;2023-05-07T03:28:02;48.45;;;35.40;;
52918;SDS011;38793;52.690;6.812;2023-05-07T03:30:27;54.03;;;36.13;;
52918;SDS011;38793;52.690;6.812;2023-05-07T03:32:53;43.90;;;35.17;;
52918;SDS011;38793;52.690;6.812;2023-05-07T03:35:19;45.55;;;33.47;;
52918;SDS011;38793;52.690;6.812;2023-05-07T03:37:44;49.67;;;36.33;;
52918;SDS011;38793;52.690;6.812;2023-05-07T03:40:10;46.17;;;35.35;;
52918;SDS011;38793;52.690;6.812;2023-05-07T03:42:37;46.65;;;34.45;;
52918;SDS011;38793;52.690;6.812;2023-05-07T03:45:02;48.90;;;34.45;;
52918;SDS011;38793;52.690;6.812;2023-05-07T03:47:28;44.25;;;32.40;;
52918;SDS011;38793;52.690;6.812;2023-05-07T03:49:54;48.40;;;35.97;;
52918;SDS011;38793;52.690;6.812;2023-05-07T03:52:20;46.53;;;34.90;;
52918;SDS011;38793;52.690;6.812;2023-05-07T03:54:50;46.70;;;33.38;;
52918;SDS011;38793;52.690;6.812;2023-05-07T03:59:42;44.60;;;33.40;;
52918;SDS011;38793;52.690;6.812;2023-05-07T04:02:08;52.90;;;35.57;;
52918;SDS011;38793;52.690;6.812;2023-05-07T04:04:33;45.15;;;35.47;;
52918;SDS011;38793;52.690;6.812;2023-05-07T04:06:59;43.55;;;33.17;;
52918;SDS011;38793;52.690;6.812;2023-05-07T04:09:25;48.75;;;35.70;;
52918;SDS011;38793;52.690;6.812;2023-05-07T04:11:51;46.15;;;33.72;;
52918;SDS011;38793;52.690;6.812;2023-05-07T04:14:16;45.08;;;34.35;;
52918;SDS011;38793;52.690;6.812;2023-05-07T04:16:42;43.80;;;33.10;;
52918;SDS011;38793;52.690;6.812;2023-05-07T04:19:07;44.13;;;34.17;;
52918;SDS011;38793;52.690;6.812;2023-05-07T04:21:33;43.23;;;33.97;;
52918;SDS011;38793;52.690;6.812;2023-05-07T04:23:59;45.40;;;32.83;;
52918;SDS011;38793;52.690;6.812;2023-05-07T04:26:24;45.20;;;32.58;;
52918;SDS011;38793;52.690;6.812;2023-05-07T04:28:50;39.57;;;31.20;;
52918;SDS011;38793;52.690;6.812;2023-05-07T04:31:15;43.03;;;31.87;;
52918;SDS011;38793;52.690;6.812;2023-05-07T04:33:41;46.95;;;32.88;;
52918;SDS011;38793;52.690;6.812;2023-05-07T04:36:07;42.05;;;30.88;;
52918;SDS011;38793;52.690;6.812;2023-05-07T04:38:32;36.80;;;30.55;;
52918;SDS011;38793;52.690;6.812;2023-05-07T04:41:02;42.40;;;31.13;;
52918;SDS011;38793;52.690;6.812;2023-05-07T04:43:29;39.88;;;31.45;;
52918;SDS011;38793;52.690;6.812;2023-05-07T04:45:54;38.13;;;30.03;;
52918;SDS011;38793;52.690;6.812;2023-05-07T04:48:20;35.75;;;28.33;;
52918;SDS011;38793;52.690;6.812;2023-05-07T04:50:49;41.28;;;29.58;;
52918;SDS011;38793;52.690;6.812;2023-05-07T04:53:15;39.38;;;28.77;;
52918;SDS011;38793;52.690;6.812;2023-05-07T04:55:42;37.47;;;29.90;;
52918;SDS011;38793;52.690;6.812;2023-05-07T04:58:08;38.53;;;29.83;;
52918;SDS011;38793;52.690;6.812;2023-05-07T05:00:33;34.20;;;27.70;;
52918;SDS011;38793;52.690;6.812;2023-05-07T05:02:59;33.08;;;26.92;;
52918;SDS011;38793;52.690;6.812;2023-05-07T05:05:25;34.95;;;27.85;;
52918;SDS011;38793;52.690;6.812;2023-05-07T05:07:50;37.15;;;29.38;;
52918;SDS011;38793;52.690;6.812;2023-05-07T05:10:16;36.45;;;27.73;;
52918;SDS011;38793;52.690;6.812;2023-05-07T05:12:42;36.33;;;28.73;;
52918;SDS011;38793;52.690;6.812;2023-05-07T05:15:08;35.88;;;29.08;;
52918;SDS011;38793;52.690;6.812;2023-05-07T05:17:35;38.15;;;29.35;;
52918;SDS011;38793;52.690;6.812;2023-05-07T05:20:01;36.15;;;28.70;;
52918;SDS011;38793;52.690;6.812;2023-05-07T05:22:27;37.35;;;29.05;;
52918;SDS011;38793;52.690;6.812;2023-05-07T05:24:54;34.83;;;28.00;;
52918;SDS011;38793;52.690;6.812;2023-05-07T05:27:20;34.97;;;27.77;;
52918;SDS011;38793;52.690;6.812;2023-05-07T05:29:45;34.70;;;28.60;;
52918;SDS011;38793;52.690;6.812;2023-05-07T05:32:11;43.50;;;30.48;;
52918;SDS011;38793;52.690;6.812;2023-05-07T05:34:37;38.58;;;28.45;;
52918;SDS011;38793;52.690;6.812;2023-05-07T05:37:02;35.85;;;29.58;;
52918;SDS011;38793;52.690;6.812;2023-05-07T05:39:28;34.55;;;28.80;;
52918;SDS011;38793;52.690;6.812;2023-05-07T05:41:53;36.30;;;28.27;;
52918;SDS011;38793;52.690;6.812;2023-05-07T05:44:19;39.00;;;28.33;;
52918;SDS011;38793;52.690;6.812;2023-05-07T05:46:45;37.75;;;28.25;;
52918;SDS011;38793;52.690;6.812;2023-05-07T05:49:10;34.30;;;27.48;;
52918;SDS011;38793;52.690;6.812;2023-05-07T05:51:36;35.95;;;28.45;;
52918;SDS011;38793;52.690;6.812;2023-05-07T05:54:01;38.90;;;31.33;;
52918;SDS011;38793;52.690;6.812;2023-05-07T05:56:27;36.70;;;28.92;;
52918;SDS011;38793;52.690;6.812;2023-05-07T05:58:53;38.60;;;30.42;;
52918;SDS011;38793;52.690;6.812;2023-05-07T06:01:18;40.28;;;30.15;;
52918;SDS011;38793;52.690;6.812;2023-05-07T06:03:44;39.67;;;29.27;;
52918;SDS011;38793;52.690;6.812;2023-05-07T06:06:10;37.47;;;29.40;;
52918;SDS011;38793;52.690;6.812;2023-05-07T06:08:35;39.25;;;32.35;;
52918;SDS011;38793;52.690;6.812;2023-05-07T06:11:01;38.78;;;29.90;;
52918;SDS011;38793;52.690;6.812;2023-05-07T06:13:27;41.22;;;30.63;;
52918;SDS011;38793;52.690;6.812;2023-05-07T06:15:53;40.25;;;30.63;;
52918;SDS011;38793;52.690;6.812;2023-05-07T06:18:19;42.72;;;31.10;;
52918;SDS011;38793;52.690;6.812;2023-05-07T06:20:44;38.55;;;32.10;;
52918;SDS011;38793;52.690;6.812;2023-05-07T06:23:10;41.07;;;33.27;;
52918;SDS011;38793;52.690;6.812;2023-05-07T06:25:35;43.83;;;33.30;;
52918;SDS011;38793;52.690;6.812;2023-05-07T06:28:01;43.90;;;33.27;;
52918;SDS011;38793;52.690;6.812;2023-05-07T06:30:26;39.23;;;31.80;;
52918;SDS011;38793;52.690;6.812;2023-05-07T06:32:52;42.30;;;33.35;;
52918;SDS011;38793;52.690;6.812;2023-05-07T06:35:18;43.37;;;33.37;;
52918;SDS011;38793;52.690;6.812;2023-05-07T06:37:44;45.70;;;33.40;;
52918;SDS011;38793;52.690;6.812;2023-05-07T06:40:09;39.67;;;32.70;;
52918;SDS011;38793;52.690;6.812;2023-05-07T06:42:36;41.97;;;32.42;;
52918;SDS011;38793;52.690;6.812;2023-05-07T06:45:02;43.58;;;32.72;;
52918;SDS011;38793;52.690;6.812;2023-05-07T06:47:28;40.33;;;31.42;;
52918;SDS011;38793;52.690;6.812;2023-05-07T06:49:54;40.35;;;29.73;;
52918;SDS011;38793;52.690;6.812;2023-05-07T06:52:20;43.45;;;31.55;;
52918;SDS011;38793;52.690;6.812;2023-05-07T06:54:45;47.80;;;33.33;;
52918;SDS011;38793;52.690;6.812;2023-05-07T06:57:11;42.80;;;33.50;;
52918;SDS011;38793;52.690;6.812;2023-05-07T06:59:36;46.63;;;33.08;;
52918;SDS011;38793;52.690;6.812;2023-05-07T07:02:02;39.88;;;31.85;;
52918;SDS011;38793;52.690;6.812;2023-05-07T07:04:28;46.80;;;33.42;;
52918;SDS011;38793;52.690;6.812;2023-05-07T07:06:53;58.70;;;33.40;;
52918;SDS011;38793;52.690;6.812;2023-05-07T07:09:19;43.17;;;32.63;;
52918;SDS011;38793;52.690;6.812;2023-05-07T07:11:44;43.33;;;32.43;;
52918;SDS011;38793;52.690;6.812;2023-05-07T07:14:10;41.97;;;31.00;;
52918;SDS011;38793;52.690;6.812;2023-05-07T07:16:36;46.47;;;30.50;;
52918;SDS011;38793;52.690;6.812;2023-05-07T07:19:01;44.60;;;32.88;;
52918;SDS011;38793;52.690;6.812;2023-05-07T07:21:27;47.30;;;32.90;;
52918;SDS011;38793;52.690;6.812;2023-05-07T07:23:52;39.73;;;31.10;;
52918;SDS011;38793;52.690;6.812;2023-05-07T07:26:18;42.60;;;31.20;;
52918;SDS011;38793;52.690;6.812;2023-05-07T07:28:47;41.58;;;31.50;;
52918;SDS011;38793;52.690;6.812;2023-05-07T07:31:12;49.80;;;32.63;;
52918;SDS011;38793;52.690;6.812;2023-05-07T07:33:38;45.40;;;34.72;;
52918;SDS011;38793;52.690;6.812;2023-05-07T07:36:05;48.47;;;34.13;;
52918;SDS011;38793;52.690;6.812;2023-05-07T07:38:31;43.13;;;30.70;;
52918;SDS011;38793;52.690;6.812;2023-05-07T07:40:57;43.90;;;32.97;;
52918;SDS011;38793;52.690;6.812;2023-05-07T07:43:22;42.22;;;31.38;;
52918;SDS011;38793;52.690;6.812;2023-05-07T07:45:48;46.50;;;32.43;;
52918;SDS011;38793;52.690;6.812;2023-05-07T07:48:13;46.50;;;32.13;;
52918;SDS011;38793;52.690;6.812;2023-05-07T07:50:39;41.80;;;29.98;;
52918;SDS011;38793;52.690;6.812;2023-05-07T07:53:05;42.65;;;31.60;;
52918;SDS011;38793;52.690;6.812;2023-05-07T07:55:30;39.08;;;30.05;;
52918;SDS011;38793;52.690;6.812;2023-05-07T07:57:57;49.60;;;34.97;;
52918;SDS011;38793;52.690;6.812;2023-05-07T08:00:22;41.95;;;34.03;;
52918;SDS011;38793;52.690;6.812;2023-05-07T08:02:48;48.97;;;33.70;;
52918;SDS011;38793;52.690;6.812;2023-05-07T08:05:14;45.30;;;35.83;;
52918;SDS011;38793;52.690;6.812;2023-05-07T08:10:05;39.72;;;32.40;;
52918;SDS011;38793;52.690;6.812;2023-05-07T08:12:31;38.83;;;31.83;;
52918;SDS011;38793;52.690;6.812;2023-05-07T08:14:57;44.03;;;33.60;;
52918;SDS011;38793;52.690;6.812;2023-05-07T08:17:23;44.35;;;33.00;;
52918;SDS011;38793;52.690;6.812;2023-05-07T08:19:49;41.17;;;31.13;;
52918;SDS011;38793;52.690;6.812;2023-05-07T08:22:14;39.15;;;31.60;;
52918;SDS011;38793;52.690;6.812;2023-05-07T08:24:40;42.55;;;30.67;;
52918;SDS011;38793;52.690;6.812;2023-05-07T08:27:06;43.08;;;31.70;;
52918;SDS011;38793;52.690;6.812;2023-05-07T08:29:31;36.65;;;29.25;;
52918;SDS011;38793;52.690;6.812;2023-05-07T08:31:57;40.08;;;33.22;;
52918;SDS011;38793;52.690;6.812;2023-05-07T08:34:23;38.15;;;30.45;;
52918;SDS011;38793;52.690;6.812;2023-05-07T08:36:48;39.10;;;30.50;;
52918;SDS011;38793;52.690;6.812;2023-05-07T08:39:17;39.80;;;30.38;;
52918;SDS011;38793;52.690;6.812;2023-05-07T08:41:45;38.55;;;29.55;;
52918;SDS011;38793;52.690;6.812;2023-05-07T08:44:13;38.70;;;30.88;;
52918;SDS011;38793;52.690;6.812;2023-05-07T08:46:39;39.25;;;29.95;;
52918;SDS011;38793;52.690;6.812;2023-05-07T08:49:07;36.28;;;30.65;;
52918;SDS011;38793;52.690;6.812;2023-05-07T08:51:33;51.58;;;30.63;;
52918;SDS011;38793;52.690;6.812;2023-05-07T08:54:00;47.42;;;29.85;;
52918;SDS011;38793;52.690;6.812;2023-05-07T08:56:26;33.15;;;26.92;;
52918;SDS011;38793;52.690;6.812;2023-05-07T08:58:52;32.88;;;28.80;;
52918;SDS011;38793;52.690;6.812;2023-05-07T09:01:21;33.65;;;27.60;;
52918;SDS011;38793;52.690;6.812;2023-05-07T09:03:47;36.80;;;28.35;;
52918;SDS011;38793;52.690;6.812;2023-05-07T09:06:15;36.10;;;26.73;;
52918;SDS011;38793;52.690;6.812;2023-05-07T09:08:40;36.97;;;26.90;;
52918;SDS011;38793;52.690;6.812;2023-05-07T09:11:10;30.73;;;26.08;;
52918;SDS011;38793;52.690;6.812;2023-05-07T09:13:37;36.42;;;27.75;;
52918;SDS011;38793;52.690;6.812;2023-05-07T09:16:09;35.22;;;27.23;;
52918;SDS011;38793;52.690;6.812;2023-05-07T09:18:40;34.05;;;27.98;;
52918;SDS011;38793;52.690;6.812;2023-05-07T09:21:18;32.95;;;26.85;;
52918;SDS011;38793;52.690;6.812;2023-05-07T09:23:44;31.58;;;26.08;;
52918;SDS011;38793;52.690;6.812;2023-05-07T09:26:10;31.58;;;27.10;;
52918;SDS011;38793;52.690;6.812;2023-05-07T09:28:39;29.45;;;24.88;;
52918;SDS011;38793;52.690;6.812;2023-05-07T09:31:08;29.98;;;25.80;;
52918;SDS011;38793;52.690;6.812;2023-05-07T09:36:10;29.27;;;24.23;;
52918;SDS011;38793;52.690;6.812;2023-05-07T09:38:36;26.83;;;23.95;;
52918;SDS011;38793;52.690;6.812;2023-05-07T09:41:03;28.30;;;23.13;;
52918;SDS011;38793;52.690;6.812;2023-05-07T09:43:32;29.02;;;25.15;;
52918;SDS011;38793;52.690;6.812;2023-05-07T09:46:06;28.23;;;23.75;;
52918;SDS011;38793;52.690;6.812;2023-05-07T09:48:39;27.70;;;23.60;;
52918;SDS011;38793;52.690;6.812;2023-05-07T09:53:54;26.17;;;23.38;;
52918;SDS011;38793;52.690;6.812;2023-05-07T09:56:21;26.65;;;22.98;;
52918;SDS011;38793;52.690;6.812;2023-05-07T09:58:48;27.67;;;23.27;;
52918;SDS011;38793;52.690;6.812;2023-05-07T10:01:16;27.58;;;21.88;;
52918;SDS011;38793;52.690;6.812;2023-05-07T10:03:44;23.42;;;20.75;;
52918;SDS011;38793;52.690;6.812;2023-05-07T10:06:10;24.60;;;21.98;;
52918;SDS011;38793;52.690;6.812;2023-05-07T10:08:38;24.83;;;22.15;;
52918;SDS011;38793;52.690;6.812;2023-05-07T10:13:30;25.90;;;23.13;;
52918;SDS011;38793;52.690;6.812;2023-05-07T10:16:01;24.27;;;21.77;;
52918;SDS011;38793;52.690;6.812;2023-05-07T10:18:28;25.52;;;22.48;;
52918;SDS011;38793;52.690;6.812;2023-05-07T10:21:19;25.65;;;22.63;;
52918;SDS011;38793;52.690;6.812;2023-05-07T10:23:50;22.85;;;20.45;;
52918;SDS011;38793;52.690;6.812;2023-05-07T10:26:22;23.30;;;20.75;;
52918;SDS011;38793;52.690;6.812;2023-05-07T10:28:53;22.95;;;20.55;;
52918;SDS011;38793;52.690;6.812;2023-05-07T10:31:28;25.15;;;21.05;;
52918;SDS011;38793;52.690;6.812;2023-05-07T10:33:59;23.27;;;20.80;;
52918;SDS011;38793;52.690;6.812;2023-05-07T10:36:27;24.02;;;21.45;;
52918;SDS011;38793;52.690;6.812;2023-05-07T10:38:53;26.90;;;21.35;;
52918;SDS011;38793;52.690;6.812;2023-05-07T10:41:20;25.25;;;22.50;;
52918;SDS011;38793;52.690;6.812;2023-05-07T10:43:46;26.30;;;22.13;;
52918;SDS011;38793;52.690;6.812;2023-05-07T10:46:14;23.50;;;20.98;;
52918;SDS011;38793;52.690;6.812;2023-05-07T10:49:23;22.25;;;19.85;;
52918;SDS011;38793;52.690;6.812;2023-05-07T10:51:32;27.77;;;22.10;;
52918;SDS011;38793;52.690;6.812;2023-05-07T10:56:40;24.20;;;21.60;;
52918;SDS011;38793;52.690;6.812;2023-05-07T11:01:56;22.88;;;19.73;;
52918;SDS011;38793;52.690;6.812;2023-05-07T11:04:23;22.67;;;20.20;;
52918;SDS011;38793;52.690;6.812;2023-05-07T11:12:16;23.63;;;20.98;;
52918;SDS011;38793;52.690;6.812;2023-05-07T11:17:09;21.88;;;19.58;;
52918;SDS011;38793;52.690;6.812;2023-05-07T11:19:54;22.15;;;19.92;;
52918;SDS011;38793;52.690;6.812;2023-05-07T11:25:01;22.40;;;20.02;;
52918;SDS011;38793;52.690;6.812;2023-05-07T11:27:31;24.02;;;20.88;;
52918;SDS011;38793;52.690;6.812;2023-05-07T11:29:57;41.65;;;20.85;;
52918;SDS011;38793;52.690;6.812;2023-05-07T11:34:57;22.10;;;18.85;;
52918;SDS011;38793;52.690;6.812;2023-05-07T11:37:25;22.42;;;19.20;;
52918;SDS011;38793;52.690;6.812;2023-05-07T11:40:13;27.40;;;19.27;;
52918;SDS011;38793;52.690;6.812;2023-05-07T11:42:39;22.05;;;18.58;;
52918;SDS011;38793;52.690;6.812;2023-05-07T11:45:06;21.73;;;19.58;;
52918;SDS011;38793;52.690;6.812;2023-05-07T11:47:33;26.73;;;19.38;;
52918;SDS011;38793;52.690;6.812;2023-05-07T11:50:03;20.23;;;18.05;;
52918;SDS011;38793;52.690;6.812;2023-05-07T11:52:30;19.48;;;17.30;;
52918;SDS011;38793;52.690;6.812;2023-05-07T11:54:57;21.05;;;18.85;;
52918;SDS011;38793;52.690;6.812;2023-05-07T11:57:25;21.13;;;18.92;;
52918;SDS011;38793;52.690;6.812;2023-05-07T11:59:54;22.13;;;18.38;;
52918;SDS011;38793;52.690;6.812;2023-05-07T12:02:21;21.55;;;18.42;;
52918;SDS011;38793;52.690;6.812;2023-05-07T12:04:47;19.85;;;17.92;;
52918;SDS011;38793;52.690;6.812;2023-05-07T12:07:13;25.35;;;19.85;;
52918;SDS011;38793;52.690;6.812;2023-05-07T12:09:42;19.15;;;17.25;;
52918;SDS011;38793;52.690;6.812;2023-05-07T12:12:09;24.92;;;18.80;;
52918;SDS011;38793;52.690;6.812;2023-05-07T12:14:41;23.10;;;19.65;;
52918;SDS011;38793;52.690;6.812;2023-05-07T12:17:08;22.00;;;18.67;;
52918;SDS011;38793;52.690;6.812;2023-05-07T12:19:35;21.55;;;19.30;;
52918;SDS011;38793;52.690;6.812;2023-05-07T12:22:02;20.20;;;18.10;;
52918;SDS011;38793;52.690;6.812;2023-05-07T12:24:28;20.08;;;18.17;;
52918;SDS011;38793;52.690;6.812;2023-05-07T12:27:06;22.48;;;17.25;;
52918;SDS011;38793;52.690;6.812;2023-05-07T12:29:31;18.65;;;16.85;;
52918;SDS011;38793;52.690;6.812;2023-05-07T12:31:57;20.45;;;18.42;;
52918;SDS011;38793;52.690;6.812;2023-05-07T12:34:23;21.10;;;17.85;;
52918;SDS011;38793;52.690;6.812;2023-05-07T12:36:49;19.52;;;17.63;;
52918;SDS011;38793;52.690;6.812;2023-05-07T12:41:56;19.67;;;17.13;;
52918;SDS011;38793;52.690;6.812;2023-05-07T12:44:23;19.30;;;17.48;;
52918;SDS011;38793;52.690;6.812;2023-05-07T12:47:02;23.10;;;19.35;;
52918;SDS011;38793;52.690;6.812;2023-05-07T12:49:28;19.02;;;17.02;;
52918;SDS011;38793;52.690;6.812;2023-05-07T12:51:53;19.05;;;16.50;;
52918;SDS011;38793;52.690;6.812;2023-05-07T12:54:33;19.30;;;17.30;;
52918;SDS011;38793;52.690;6.812;2023-05-07T12:57:00;19.27;;;17.27;;
52918;SDS011;38793;52.690;6.812;2023-05-07T12:59:40;18.80;;;16.95;;
52918;SDS011;38793;52.690;6.812;2023-05-07T13:02:06;19.75;;;17.75;;
52918;SDS011;38793;52.690;6.812;2023-05-07T13:04:32;18.63;;;16.83;;
52918;SDS011;38793;52.690;6.812;2023-05-07T13:06:58;17.20;;;15.50;;
52918;SDS011;38793;52.690;6.812;2023-05-07T13:09:24;16.88;;;15.23;;
52918;SDS011;38793;52.690;6.812;2023-05-07T13:11:50;17.52;;;15.75;;
52918;SDS011;38793;52.690;6.812;2023-05-07T13:14:16;19.67;;;16.80;;
52918;SDS011;38793;52.690;6.812;2023-05-07T13:16:41;20.75;;;15.95;;
52918;SDS011;38793;52.690;6.812;2023-05-07T13:21:32;16.30;;;14.75;;
52918;SDS011;38793;52.690;6.812;2023-05-07T13:26:24;16.95;;;15.18;;
52918;SDS011;38793;52.690;6.812;2023-05-07T13:28:50;15.82;;;14.30;;
52918;SDS011;38793;52.690;6.812;2023-05-07T13:31:17;15.70;;;14.00;;
52918;SDS011;38793;52.690;6.812;2023-05-07T13:33:43;14.82;;;13.35;;
52918;SDS011;38793;52.690;6.812;2023-05-07T13:36:08;13.60;;;12.00;;
52918;SDS011;38793;52.690;6.812;2023-05-07T13:41:00;13.90;;;12.60;;
52918;SDS011;38793;52.690;6.812;2023-05-07T13:43:25;13.85;;;12.55;;
52918;SDS011;38793;52.690;6.812;2023-05-07T13:45:51;14.57;;;13.18;;
52918;SDS011;38793;52.690;6.812;2023-05-07T13:50:42;12.85;;;11.70;;
52918;SDS011;38793;52.690;6.812;2023-05-07T13:55:33;14.02;;;12.40;;
52918;SDS011;38793;52.690;6.812;2023-05-07T13:57:59;12.65;;;11.45;;
52918;SDS011;38793;52.690;6.812;2023-05-07T14:00:26;14.10;;;12.70;;
52918;SDS011;38793;52.690;6.812;2023-05-07T14:02:53;13.43;;;12.13;;
52918;SDS011;38793;52.690;6.812;2023-05-07T14:05:19;13.10;;;11.80;;
52918;SDS011;38793;52.690;6.812;2023-05-07T14:07:44;13.40;;;11.93;;
52918;SDS011;38793;52.690;6.812;2023-05-07T14:12:36;14.25;;;12.20;;
52918;SDS011;38793;52.690;6.812;2023-05-07T14:15:02;13.40;;;12.00;;
52918;SDS011;38793;52.690;6.812;2023-05-07T14:17:28;16.08;;;12.60;;
52918;SDS011;38793;52.690;6.812;2023-05-07T14:19:54;13.48;;;10.80;;
52918;SDS011;38793;52.690;6.812;2023-05-07T14:22:20;25.58;;;12.40;;
52918;SDS011;38793;52.690;6.812;2023-05-07T14:24:49;14.52;;;11.73;;
52918;SDS011;38793;52.690;6.812;2023-05-07T14:27:15;16.90;;;11.05;;
52918;SDS011;38793;52.690;6.812;2023-05-07T14:29:41;15.43;;;11.85;;
52918;SDS011;38793;52.690;6.812;2023-05-07T14:34:33;19.95;;;11.00;;
52918;SDS011;38793;52.690;6.812;2023-05-07T14:36:59;13.05;;;11.73;;
52918;SDS011;38793;52.690;6.812;2023-05-07T14:39:25;15.50;;;12.27;;
52918;SDS011;38793;52.690;6.812;2023-05-07T14:41:51;13.75;;;12.45;;
52918;SDS011;38793;52.690;6.812;2023-05-07T14:44:19;13.02;;;11.50;;
52918;SDS011;38793;52.690;6.812;2023-05-07T14:46:45;14.55;;;13.00;;
52918;SDS011;38793;52.690;6.812;2023-05-07T14:49:10;14.38;;;12.98;;
52918;SDS011;38793;52.690;6.812;2023-05-07T14:51:42;13.88;;;11.40;;
52918;SDS011;38793;52.690;6.812;2023-05-07T14:54:11;12.10;;;10.90;;
52918;SDS011;38793;52.690;6.812;2023-05-07T14:56:37;12.30;;;11.18;;
52918;SDS011;38793;52.690;6.812;2023-05-07T14:59:03;11.55;;;10.45;;
52918;SDS011;38793;52.690;6.812;2023-05-07T15:01:29;11.48;;;10.38;;
52918;SDS011;38793;52.690;6.812;2023-05-07T15:06:20;11.70;;;9.55;;
52918;SDS011;38793;52.690;6.812;2023-05-07T15:08:46;13.05;;;11.55;;
52918;SDS011;38793;52.690;6.812;2023-05-07T15:11:13;10.98;;;9.93;;
52918;SDS011;38793;52.690;6.812;2023-05-07T15:13:39;11.25;;;10.27;;
52918;SDS011;38793;52.690;6.812;2023-05-07T15:16:04;13.05;;;11.85;;
52918;SDS011;38793;52.690;6.812;2023-05-07T15:18:30;10.85;;;9.57;;
52918;SDS011;38793;52.690;6.812;2023-05-07T15:23:22;10.65;;;9.77;;